Time;durP1;ratioP1;P1;durP2;ratioP2;P2;SDS_P1;SDS_P2;PMS_P1;PMS_P2;Temp;Humidity;BMP_temperature;BMP_pressure;BME280_temperature;BME280_humidity;BME280_pressure;Samples;Min_cycle;Max_cycle;Signal;HPM_P1;HPM_P2
2023/03/05 00:02:44;;;;;;;9.23;5.78;;;;;;;16.46;48.41;96924.38;10330621;28;20289;-32
2023/03/05 00:07:45;;;;;;;9.33;6.43;;;;;;;16.44;48.50;96931.09;10330749;28;20034;-32
2023/03/05 00:12:45;;;;;;;7.40;6.15;;;;;;;16.43;48.60;96937.81;10329767;28;20417;-31
2023/03/05 00:17:46;;;;;;;9.13;6.27;;;;;;;16.43;48.27;96921.81;10328263;28;20034;-31
2023/03/05 00:22:46;;;;;;;9.50;6.30;;;;;;;16.42;48.36;96922.63;10328726;28;20034;-32
2023/03/05 00:27:47;;;;;;;6.87;6.07;;;;;;;16.40;48.50;96920.13;10329644;28;20113;-32
2023/03/05 00:32:47;;;;;;;7.13;6.03;;;;;;;16.40;48.53;96914.19;10305042;28;20422;-32
2023/03/05 00:37:47;;;;;;;8.70;6.37;;;;;;;16.40;48.43;96897.38;10325589;28;20514;-32
2023/03/05 00:42:48;;;;;;;8.55;6.43;;;;;;;16.41;48.41;96890.63;10319940;28;20298;-32
2023/03/05 00:47:48;;;;;;;7.45;5.43;;;;;;;16.40;48.26;96889.78;10304221;28;20120;-31
2023/03/05 00:52:49;;;;;;;6.17;5.23;;;;;;;16.39;48.39;96880.53;10311536;28;20034;-32
2023/03/05 00:57:49;;;;;;;6.83;5.50;;;;;;;16.41;48.53;96875.47;10328373;28;20502;-32
2023/03/05 01:02:49;;;;;;;9.00;6.37;;;;;;;16.38;48.60;96873.75;10327724;28;20402;-31
2023/03/05 01:07:54;;;;;;;7.77;5.37;;;;;;;16.39;48.09;96867.88;10310663;28;20026;-31
2023/03/05 01:12:55;;;;;;;9.20;5.32;;;;;;;16.44;48.53;96866.22;10316574;28;20036;-32
2023/03/05 01:17:55;;;;;;;6.93;5.85;;;;;;;16.45;47.81;96860.34;10327547;28;20041;-32
2023/03/05 01:22:58;;;;;;;7.23;6.07;;;;;;;16.31;47.97;96839.13;10327781;28;20034;-31
2023/03/05 01:27:58;;;;;;;9.05;6.03;;;;;;;16.36;47.90;96857.69;10327612;28;20038;-32
2023/03/05 01:32:59;;;;;;;7.80;5.53;;;;;;;16.28;48.43;96851.72;10309365;28;20044;-31
2023/03/05 01:38:00;;;;;;;7.93;5.55;;;;;;;16.31;48.09;96844.19;10308299;28;20305;-31
2023/03/05 01:43:28;;;;;;;6.40;4.90;;;;;;;16.30;48.04;96837.41;10322674;28;20046;-32
2023/03/05 01:48:28;;;;;;;6.55;5.30;;;;;;;16.29;48.29;96824.78;10321948;28;20126;-32
2023/03/05 01:53:29;;;;;;;6.68;5.20;;;;;;;16.25;48.41;96828.97;10325783;28;20034;-32
2023/03/05 01:58:30;;;;;;;6.20;5.22;;;;;;;16.22;48.73;96823.88;10317938;28;20038;-31
2023/03/05 02:03:32;;;;;;;6.40;5.20;;;;;;;16.19;48.89;96813.72;10326445;28;20041;-31
2023/03/05 02:08:32;;;;;;;6.57;5.38;;;;;;;16.15;48.86;96817.06;10309346;28;20038;-31
2023/03/05 02:13:37;;;;;;;6.03;5.30;;;;;;;16.12;48.85;96804.38;10316598;28;20410;-31
2023/03/05 02:18:37;;;;;;;7.18;5.65;;;;;;;16.08;49.15;96805.22;10316703;28;20041;-30
2023/03/05 02:23:39;;;;;;;7.78;5.40;;;;;;;16.17;48.99;96797.72;10334574;28;20402;-31
2023/03/05 02:28:48;;;;;;;9.00;6.13;;;;;;;16.21;48.63;96794.38;10314487;28;20194;-31
2023/03/05 02:33:48;;;;;;;7.32;4.93;;;;;;;16.28;48.21;96793.59;10333424;28;20044;-31
2023/03/05 02:38:52;;;;;;;7.57;5.28;;;;;;;16.24;48.02;96786.84;10316959;28;20450;-31
2023/03/05 02:43:53;;;;;;;6.43;5.13;;;;;;;16.27;48.21;96786.88;10312716;28;20521;-31
2023/03/05 02:48:53;;;;;;;5.13;4.40;;;;;;;16.26;48.00;96782.66;10321085;28;20027;-31
2023/03/05 02:53:54;;;;;;;6.77;5.13;;;;;;;16.24;47.94;96778.41;10315751;28;20315;-30
2023/03/05 02:58:56;;;;;;;5.45;4.63;;;;;;;16.24;47.89;96769.16;10315040;28;20092;-30
2023/03/05 03:03:56;;;;;;;5.72;4.60;;;;;;;16.21;48.65;96761.53;10315711;28;20077;-30
2023/03/05 03:08:57;;;;;;;5.05;4.53;;;;;;;16.16;48.47;96763.19;10315064;28;20038;-30
2023/03/05 03:13:58;;;;;;;7.90;4.90;;;;;;;16.13;48.66;96758.09;10331191;28;20550;-29
2023/03/05 03:18:58;;;;;;;5.75;4.80;;;;;;;16.19;48.04;96758.16;10332796;28;20049;-29
2023/03/05 03:23:59;;;;;;;5.70;4.70;;;;;;;16.23;48.04;96759.91;10328221;28;20031;-29
2023/03/05 03:28:59;;;;;;;5.63;4.93;;;;;;;16.24;47.61;96759.06;10330607;28;20296;-30
2023/03/05 03:33:59;;;;;;;4.70;4.20;;;;;;;16.29;47.81;96759.94;10331790;28;20045;-30
2023/03/05 03:39:00;;;;;;;5.33;4.40;;;;;;;16.30;48.04;96761.63;10332192;28;20044;-30
2023/03/05 03:44:02;;;;;;;4.77;4.23;;;;;;;16.33;47.82;96764.19;10330611;28;20033;-30
2023/03/05 03:49:02;;;;;;;4.63;4.18;;;;;;;16.31;47.30;96758.28;10330444;28;20113;-29
2023/03/05 03:54:04;;;;;;;4.57;4.13;;;;;;;16.29;47.46;96749.84;10330393;28;20034;-29
2023/03/05 03:59:04;;;;;;;5.15;4.65;;;;;;;16.28;47.72;96747.31;10329219;28;20038;-29
2023/03/05 04:04:05;;;;;;;6.90;4.60;;;;;;;16.26;48.09;96734.66;10330961;28;20411;-29
2023/03/05 04:09:07;;;;;;;5.13;4.30;;;;;;;16.25;47.67;96737.16;10330358;28;20026;-30
2023/03/05 04:14:07;;;;;;;5.38;4.47;;;;;;;16.27;47.28;96735.53;10329053;28;20394;-29
2023/03/05 04:19:07;;;;;;;4.80;4.30;;;;;;;16.25;47.44;96738.03;10330407;28;20049;-30
2023/03/05 04:24:08;;;;;;;5.77;4.23;;;;;;;16.24;47.58;96726.22;10329453;28;20061;-30
2023/03/05 04:29:08;;;;;;;4.80;4.20;;;;;;;16.17;48.03;96732.06;10329513;28;20045;-30
2023/03/05 04:34:08;;;;;;;4.47;3.90;;;;;;;16.11;48.34;96719.38;10329511;28;20034;-29
2023/03/05 04:39:09;;;;;;;4.37;3.90;;;;;;;16.05;48.28;96719.31;10329698;28;21308;-31
2023/03/05 04:44:09;;;;;;;5.10;4.47;;;;;;;16.05;48.25;96714.28;10327042;28;20034;-30
2023/03/05 04:49:12;;;;;;;4.30;3.87;;;;;;;16.03;48.83;96707.50;10329439;28;20038;-29
2023/03/05 04:54:12;;;;;;;4.93;4.35;;;;;;;15.99;48.60;96699.06;10328650;28;20084;-30
2023/03/05 04:59:12;;;;;;;4.97;4.30;;;;;;;16.06;48.52;96700.81;10327271;28;20081;-30
2023/03/05 05:04:13;;;;;;;4.30;3.73;;;;;;;16.06;48.62;96695.75;10329030;28;20026;-29
2023/03/05 05:09:13;;;;;;;4.90;4.33;;;;;;;16.01;48.82;96691.47;10324796;28;20085;-29
2023/03/05 05:14:13;;;;;;;4.40;4.00;;;;;;;15.97;48.58;96688.09;10327090;28;20546;-30
2023/03/05 05:19:14;;;;;;;4.05;3.65;;;;;;;15.97;48.62;96692.28;10328487;28;20514;-29
2023/03/05 05:24:14;;;;;;;4.75;4.28;;;;;;;15.95;48.50;96691.44;10327519;28;20026;-30
2023/03/05 05:29:15;;;;;;;4.37;3.50;;;;;;;15.92;48.89;96694.78;10327646;28;20041;-29
2023/03/05 05:34:15;;;;;;;4.13;3.73;;;;;;;15.91;48.51;96690.56;10328162;28;20034;-29
2023/03/05 05:39:15;;;;;;;5.20;3.93;;;;;;;15.90;48.89;96688.88;10327845;28;20030;-30
2023/03/05 05:44:16;;;;;;;4.10;3.70;;;;;;;15.89;48.82;96677.09;10325232;28;20561;-30
2023/03/05 05:49:17;;;;;;;5.40;4.10;;;;;;;15.83;48.80;96666.94;10336147;28;20038;-30
2023/03/05 05:54:17;;;;;;;4.95;4.10;;;;;;;15.89;48.60;96676.22;10328916;28;20549;-29
2023/03/05 05:59:17;;;;;;;4.80;4.23;;;;;;;15.87;49.09;96666.09;10335187;28;20077;-29
2023/03/05 06:04:18;;;;;;;5.05;4.05;;;;;;;15.86;48.62;96666.13;10335881;28;20089;-30
2023/03/05 06:09:18;;;;;;;4.10;3.50;;;;;;;15.85;48.32;96660.22;10335283;28;20497;-29
2023/03/05 06:14:19;;;;;;;5.07;4.38;;;;;;;15.99;48.61;96668.75;10331320;28;20526;-30
2023/03/05 06:19:19;;;;;;;3.80;3.40;;;;;;;16.04;48.05;96674.69;10334655;28;20070;-30
2023/03/05 06:24:21;;;;;;;4.27;3.80;;;;;;;16.08;47.39;96678.94;10337645;28;20027;-31
2023/03/05 06:29:21;;;;;;;5.43;3.92;;;;;;;16.13;47.74;96672.22;10344128;28;20410;-30
2023/03/05 06:34:21;;;;;;;4.47;3.77;;;;;;;16.12;48.15;96662.97;10336222;28;20042;-31
2023/03/05 06:39:22;;;;;;;9.68;4.05;;;;;;;16.15;49.08;96662.16;10331908;28;20339;-30
2023/03/05 06:44:22;;;;;;;5.30;4.20;;;;;;;16.17;49.11;96663.88;10330867;28;20034;-29
2023/03/05 06:49:23;;;;;;;5.97;3.75;;;;;;;16.18;49.80;96670.59;10333645;28;20104;-29
2023/03/05 06:54:23;;;;;;;5.63;3.80;;;;;;;16.20;50.15;96668.94;10332720;28;20046;-30
2023/03/05 06:59:24;;;;;;;8.20;4.13;;;;;;;16.23;49.27;96665.59;10320445;28;20026;-29
2023/03/05 07:04:24;;;;;;;11.05;4.50;;;;;;;16.21;49.69;96660.50;10332841;28;20288;-30
2023/03/05 07:09:26;;;;;;;5.57;3.60;;;;;;;16.20;49.81;96653.78;10340506;28;20038;-30
2023/03/05 07:14:27;;;;;;;5.10;4.15;;;;;;;16.23;49.27;96653.81;10337517;28;20301;-30
2023/03/05 07:19:27;;;;;;;9.10;3.70;;;;;;;16.21;48.71;96645.34;10334018;28;20030;-29
2023/03/05 07:24:28;;;;;;;4.33;3.50;;;;;;;16.22;49.13;96643.69;10339300;28;20057;-30
2023/03/05 07:29:29;;;;;;;8.88;4.38;;;;;;;16.26;48.80;96653.81;10335269;28;20037;-30
2023/03/05 07:34:29;;;;;;;14.00;4.13;;;;;;;16.24;49.62;96647.06;10339048;28;20026;-30
2023/03/05 07:39:29;;;;;;;14.25;4.10;;;;;;;16.24;48.98;96650.44;10323581;28;20288;-29
2023/03/05 07:44:30;;;;;;;8.67;3.47;;;;;;;16.28;48.76;96651.31;10337896;28;20555;-30
2023/03/05 07:49:30;;;;;;;4.33;3.63;;;;;;;16.27;48.75;96650.47;10334721;28;20027;-29
2023/03/05 07:54:31;;;;;;;8.03;3.87;;;;;;;16.27;48.48;96640.34;10339540;28;20451;-29
2023/03/05 07:59:31;;;;;;;9.40;3.77;;;;;;;16.25;49.07;96646.22;10348094;28;20033;-30
2023/03/05 08:04:32;;;;;;;10.80;4.05;;;;;;;16.25;48.96;96636.97;10340579;28;20084;-29
2023/03/05 08:09:32;;;;;;;6.37;3.47;;;;;;;16.25;48.80;96639.50;10311840;28;20065;-29
2023/03/05 08:14:32;;;;;;;8.23;4.50;;;;;;;16.26;48.71;96637.81;10345138;28;20312;-29
2023/03/05 08:19:35;;;;;;;6.33;3.70;;;;;;;16.23;48.84;96627.69;10347311;28;20038;-29
2023/03/05 08:24:36;;;;;;;4.65;3.30;;;;;;;16.24;49.26;96624.34;10319068;28;20845;-30
2023/03/05 08:29:36;;;;;;;5.97;3.58;;;;;;;16.23;49.01;96617.59;10311608;28;20092;-30
2023/03/05 08:34:37;;;;;;;7.15;3.30;;;;;;;16.23;49.04;96615.06;10328723;28;20113;-30
2023/03/05 08:39:37;;;;;;;5.13;3.27;;;;;;;16.21;48.92;96604.94;10316429;28;20030;-29
2023/03/05 08:44:37;;;;;;;6.47;3.60;;;;;;;16.19;48.76;96599.03;10311610;28;20368;-30
2023/03/05 08:49:38;;;;;;;8.80;3.47;;;;;;;16.19;49.81;96598.22;10333891;28;20120;-30
2023/03/05 08:54:38;;;;;;;5.70;3.30;;;;;;;16.12;50.30;96594.78;10342580;28;20033;-29
2023/03/05 08:59:38;;;;;;;10.50;3.85;;;;;;;16.12;49.61;96591.44;10322380;28;20673;-30
2023/03/05 09:04:39;;;;;;;10.13;3.60;;;;;;;16.17;49.38;96592.28;10339018;28;20393;-29
2023/03/05 09:09:40;;;;;;;8.82;4.20;;;;;;;16.13;49.87;96591.41;10343782;28;20670;-30
2023/03/05 09:14:41;;;;;;;5.47;3.10;;;;;;;16.14;49.98;96592.28;10317625;28;20049;-29
2023/03/05 09:19:41;;;;;;;13.20;4.18;;;;;;;16.13;49.72;96588.06;10342713;28;20037;-30
2023/03/05 09:24:42;;;;;;;8.52;4.90;;;;;;;15.91;46.64;96593.78;10332480;28;20030;-29
2023/03/05 09:29:43;;;;;;;9.35;4.45;;;;;;;16.10;48.82;96581.31;10315774;28;20035;-29
2023/03/05 09:34:43;;;;;;;8.52;3.78;;;;;;;16.10;49.18;96576.25;10321717;28;20022;-30
2023/03/05 09:39:44;;;;;;;12.53;4.23;;;;;;;16.12;49.93;96572.06;10343769;28;20029;-30
2023/03/05 09:45:12;;;;;;;8.30;3.80;;;;;;;16.15;49.71;96574.63;10342970;28;20026;-30
2023/03/05 09:50:32;;;;;;;9.93;3.55;;;;;;;16.17;49.80;96570.41;10335205;28;20081;-31
2023/03/05 09:55:39;;;;;;;15.95;3.72;;;;;;;16.20;49.15;96562.84;10319574;28;20525;-29
2023/03/05 10:00:59;;;;;;;10.18;3.80;;;;;;;16.23;48.33;96564.56;10327162;28;20040;-30
2023/03/05 10:06:14;;;;;;;8.93;3.95;;;;;;;16.29;49.47;96567.94;10333990;28;20114;-30
2023/03/05 10:11:24;;;;;;;8.50;4.20;;;;;;;16.27;50.86;96559.53;10318407;28;20418;-30
2023/03/05 10:16:46;;;;;;;15.38;3.67;;;;;;;16.31;49.78;96561.25;10346523;28;20414;-30
2023/03/05 10:22:02;;;;;;;8.82;3.63;;;;;;;16.24;49.94;96544.38;10340170;28;20104;-29
2023/03/05 10:27:35;;;;;;;7.75;4.45;;;;;;;16.32;49.57;96541.88;10350222;28;20049;-30
2023/03/05 10:32:52;;;;;;;12.50;3.47;;;;;;;16.29;49.10;96541.88;10268606;28;20061;-29
2023/03/05 10:38:21;;;;;;;11.88;4.15;;;;;;;16.31;49.68;96528.41;10253413;28;20096;-29
2023/03/05 10:43:33;;;;;;;10.30;4.18;;;;;;;16.33;49.38;96529.25;10327048;28;20124;-30
2023/03/05 10:48:41;;;;;;;6.72;3.00;;;;;;;16.32;49.14;96522.53;10332625;28;20069;-30
2023/03/05 10:53:58;;;;;;;10.20;3.40;;;;;;;16.29;49.76;96512.38;10318784;28;20035;-30
2023/03/05 10:58:58;;;;;;;10.85;3.60;;;;;;;16.29;50.71;96507.31;10318871;28;20038;-30
2023/03/05 11:04:05;;;;;;;7.20;3.37;;;;;;;16.30;50.12;96498.91;10320697;28;20026;-29
2023/03/05 11:09:16;;;;;;;9.52;3.95;;;;;;;16.29;50.39;96482.06;10322601;28;20498;-29
2023/03/05 11:14:32;;;;;;;12.45;3.70;;;;;;;16.22;50.34;96490.47;10316802;28;20050;-30
2023/03/05 11:19:33;;;;;;;5.65;3.80;;;;;;;16.18;49.57;96483.72;10341888;28;20111;-32
2023/03/05 11:24:33;;;;;;;9.10;3.70;;;;;;;16.17;49.57;96481.16;10325609;28;20040;-31
2023/03/05 11:29:45;;;;;;;9.82;4.30;;;;;;;16.16;51.31;96476.94;10322714;28;20421;-32
2023/03/05 11:34:47;;;;;;;9.00;3.25;;;;;;;16.16;51.22;96476.94;10334421;28;20100;-31
2023/03/05 11:39:49;;;;;;;14.43;3.55;;;;;;;16.13;51.12;96470.19;10333442;28;20403;-31
2023/03/05 11:44:57;;;;;;;10.43;3.40;;;;;;;16.18;50.52;96458.44;10320426;28;20035;-32
2023/03/05 11:50:24;;;;;;;5.15;2.53;;;;;;;16.16;50.40;96450.03;10326078;28;20050;-31
2023/03/05 11:55:42;;;;;;;5.32;3.33;;;;;;;16.14;51.24;96436.56;10319338;28;20141;-32
2023/03/05 12:00:45;;;;;;;4.78;3.30;;;;;;;16.17;50.62;96436.56;10323420;28;20070;-32
2023/03/05 12:06:03;;;;;;;8.35;3.47;;;;;;;16.19;51.02;96424.78;10351968;28;20030;-31
2023/03/05 12:11:29;;;;;;;6.97;2.95;;;;;;;16.27;49.18;96413.03;10294903;28;20410;-33
2023/03/05 12:16:36;;;;;;;4.35;2.63;;;;;;;16.32;48.93;96406.31;10323451;28;20126;-31
2023/03/05 12:21:39;;;;;;;16.42;4.55;;;;;;;15.95;48.55;96386.78;10338819;28;20053;-32
2023/03/05 12:26:52;;;;;;;8.23;3.60;;;;;;;15.97;51.44;96382.63;10341534;28;20034;-35
2023/03/05 12:31:52;;;;;;;16.08;4.88;;;;;;;16.00;51.13;96375.03;10334734;28;20114;-32
2023/03/05 12:36:53;;;;;;;11.70;3.87;;;;;;;16.00;51.25;96377.56;10328793;28;20499;-31
2023/03/05 12:41:55;;;;;;;20.17;4.10;;;;;;;15.99;51.81;96370.84;10336516;28;20289;-31
2023/03/05 12:47:10;;;;;;;10.10;3.47;;;;;;;16.00;51.43;96359.91;10323341;28;20042;-31
2023/03/05 12:52:22;;;;;;;7.07;3.17;;;;;;;16.01;51.40;96355.69;10336520;28;20530;-31
2023/03/05 12:57:28;;;;;;;7.75;3.05;;;;;;;16.02;50.95;96355.69;10326126;28;20493;-32
2023/03/05 13:02:36;;;;;;;5.47;3.20;;;;;;;16.01;51.17;96338.84;10343800;28;20042;-32
2023/03/05 13:07:36;;;;;;;6.50;3.20;;;;;;;16.01;51.12;96343.91;10330490;28;20069;-32
2023/03/05 13:12:37;;;;;;;7.72;3.03;;;;;;;16.01;50.75;96343.06;10333020;28;20033;-31
2023/03/05 13:17:51;;;;;;;6.03;2.70;;;;;;;16.00;51.05;96331.28;10330000;28;20238;-31
2023/03/05 13:23:04;;;;;;;6.18;3.08;;;;;;;15.99;50.98;96327.06;10327882;28;20065;-31
2023/03/05 13:28:15;;;;;;;7.13;2.92;;;;;;;16.01;51.26;96322.84;10340311;28;20034;-32
2023/03/05 13:33:22;;;;;;;15.18;3.10;;;;;;;15.96;50.78;96320.31;10331993;28;20438;-32
2023/03/05 13:38:34;;;;;;;15.27;3.25;;;;;;;16.03;51.07;96311.94;10325857;28;20398;-32
2023/03/05 13:44:01;;;;;;;9.30;2.97;;;;;;;16.03;51.42;96319.50;10326512;28;20045;-32
2023/03/05 13:49:21;;;;;;;9.85;3.38;;;;;;;16.00;51.35;96303.50;10340176;28;20057;-31
2023/03/05 13:54:24;;;;;;;6.90;2.40;;;;;;;16.00;51.51;96311.94;10327261;28;20077;-31
2023/03/05 13:59:30;;;;;;;6.72;3.10;;;;;;;15.99;52.37;96305.19;10338656;28;20073;-32
2023/03/05 14:04:36;;;;;;;7.40;2.78;;;;;;;16.01;52.79;96306.03;10332334;28;20046;-31
2023/03/05 14:09:36;;;;;;;3.67;2.45;;;;;;;16.02;52.52;96290.03;10340929;28;20417;-32
2023/03/05 14:14:42;;;;;;;7.43;2.70;;;;;;;16.05;51.29;96292.59;10333099;28;20418;-32
2023/03/05 14:19:44;;;;;;;10.30;3.07;;;;;;;16.08;50.92;96289.22;10334515;28;20030;-31
2023/03/05 14:24:51;;;;;;;4.05;2.13;;;;;;;16.06;51.19;96289.22;10345154;28;20034;-31
2023/03/05 14:29:52;;;;;;;5.82;2.83;;;;;;;16.07;51.30;96290.91;10336537;28;20037;-32
2023/03/05 14:34:57;;;;;;;7.32;2.60;;;;;;;16.09;51.63;96281.66;10341411;28;20520;-31
2023/03/05 14:40:03;;;;;;;4.70;2.30;;;;;;;16.07;51.47;96275.75;10344454;28;20490;-32
2023/03/05 14:45:17;;;;;;;5.90;2.60;;;;;;;16.06;51.12;96261.47;10346636;28;20112;-32
2023/03/05 14:50:23;;;;;;;6.68;3.05;;;;;;;16.05;51.67;96259.78;10333146;28;20056;-31
2023/03/05 14:55:26;;;;;;;4.07;2.13;;;;;;;16.05;51.86;96257.25;10317659;28;20030;-32
2023/03/05 15:00:27;;;;;;;4.50;2.15;;;;;;;16.04;51.78;96253.00;10339907;28;20041;-32
2023/03/05 15:05:28;;;;;;;6.65;2.85;;;;;;;16.02;51.80;96242.06;10332361;28;20038;-31
2023/03/05 15:10:28;;;;;;;3.28;2.33;;;;;;;16.03;51.66;96232.84;10325315;28;20108;-31
2023/03/05 15:15:29;;;;;;;4.70;2.17;;;;;;;16.02;52.03;96234.50;10324626;28;20030;-32
2023/03/05 15:20:31;;;;;;;4.33;2.53;;;;;;;16.03;52.87;96227.78;10347541;28;20184;-31
2023/03/05 15:25:31;;;;;;;5.70;2.33;;;;;;;16.03;52.59;96226.09;10330647;28;20069;-33
2023/03/05 15:30:35;;;;;;;3.13;2.00;;;;;;;16.03;52.25;96226.09;10340013;28;20046;-31
2023/03/05 15:35:36;;;;;;;5.53;2.10;;;;;;;16.05;51.65;96213.47;10330875;28;20355;-31
2023/03/05 15:40:36;;;;;;;6.15;2.28;;;;;;;16.08;51.61;96209.28;10339315;28;20081;-31
2023/03/05 15:45:37;;;;;;;4.80;2.10;;;;;;;16.10;51.77;96194.97;10332652;28;20429;-32
2023/03/05 15:50:40;;;;;;;6.32;2.08;;;;;;;16.12;52.21;96183.16;10330694;28;20034;-31
2023/03/05 15:55:42;;;;;;;4.78;2.97;;;;;;;16.13;50.94;96194.13;10340105;28;20049;-31
2023/03/05 16:00:43;;;;;;;5.38;2.63;;;;;;;16.14;52.64;96191.63;10335058;28;20638;-32
2023/03/05 16:05:43;;;;;;;6.25;2.42;;;;;;;16.12;52.42;96180.66;10338017;28;20128;-32
2023/03/05 16:10:45;;;;;;;7.68;2.35;;;;;;;16.05;52.53;96176.47;10345051;28;20149;-31
2023/03/05 16:15:51;;;;;;;5.28;3.35;;;;;;;16.15;51.63;96174.75;10336326;28;20050;-31
2023/03/05 16:20:52;;;;;;;10.43;3.40;;;;;;;15.95;48.39;96168.88;10316461;28;20061;-31
2023/03/05 16:25:52;;;;;;;10.85;3.03;;;;;;;15.95;50.47;96161.28;10331968;28;20443;-31
2023/03/05 16:30:55;;;;;;;6.40;3.17;;;;;;;15.86;52.12;96154.53;10338655;28;20030;-31
2023/03/05 16:36:21;;;;;;;9.70;3.45;;;;;;;15.96;52.33;96158.75;10330419;28;20274;-32
2023/03/05 16:41:22;;;;;;;7.30;2.97;;;;;;;16.12;51.13;96147.81;10341952;28;20038;-31
2023/03/05 16:46:27;;;;;;;4.47;2.33;;;;;;;16.14;51.56;96148.69;10325642;28;20414;-31
2023/03/05 16:51:28;;;;;;;8.60;2.50;;;;;;;16.15;51.38;96135.22;10314463;28;20459;-31
2023/03/05 16:56:28;;;;;;;5.10;2.93;;;;;;;16.21;50.95;96140.25;10335161;28;20069;-31
2023/03/05 17:01:29;;;;;;;3.60;2.60;;;;;;;16.20;51.40;96138.56;10341491;28;20677;-32
2023/03/05 17:06:31;;;;;;;6.38;2.92;;;;;;;16.20;50.97;96137.75;10334247;28;20395;-31
2023/03/05 17:11:31;;;;;;;6.73;2.60;;;;;;;16.20;51.33;96138.56;10298958;28;1034065;-32
2023/03/05 17:16:31;;;;;;;5.13;2.70;;;;;;;16.19;51.13;96136.88;10327060;28;20344;-31
2023/03/05 17:21:32;;;;;;;4.95;2.60;;;;;;;16.18;51.29;96130.16;10338136;28;20072;-32
2023/03/05 17:26:35;;;;;;;6.40;2.80;;;;;;;16.17;51.28;96133.53;10316485;28;20038;-32
2023/03/05 17:31:35;;;;;;;6.95;2.92;;;;;;;16.22;50.73;96131.84;10323565;28;20422;-32
2023/03/05 17:36:38;;;;;;;5.38;2.47;;;;;;;16.25;50.90;96138.56;10312450;28;20033;-31
2023/03/05 17:41:38;;;;;;;10.35;2.85;;;;;;;16.25;51.65;96129.31;10314934;28;20027;-32
2023/03/05 17:46:38;;;;;;;10.50;3.00;;;;;;;16.16;53.41;96126.78;10319458;28;20038;-31
2023/03/05 17:51:39;;;;;;;9.07;3.60;;;;;;;16.24;52.20;96135.22;10319912;28;20045;-32
2023/03/05 17:56:39;;;;;;;6.33;2.80;;;;;;;16.24;52.65;96134.34;10307623;28;20490;-31
2023/03/05 18:01:39;;;;;;;8.70;3.63;;;;;;;16.21;53.46;96130.13;10334362;28;20497;-32
2023/03/05 18:06:40;;;;;;;9.30;3.67;;;;;;;16.24;52.51;96125.09;10338364;28;20483;-32
2023/03/05 18:11:40;;;;;;;7.33;3.60;;;;;;;16.23;52.12;96115.84;10342237;28;20487;-31
2023/03/05 18:16:41;;;;;;;9.93;3.57;;;;;;;16.25;52.56;96121.72;10341135;28;20486;-31
2023/03/05 18:21:41;;;;;;;6.70;3.42;;;;;;;16.23;52.34;96122.56;10328326;28;20278;-32
2023/03/05 18:26:43;;;;;;;9.25;4.25;;;;;;;16.24;52.25;96125.09;10322255;28;20465;-32
2023/03/05 18:31:43;;;;;;;12.05;3.45;;;;;;;16.23;51.88;96123.44;10318897;28;20043;-31
2023/03/05 18:36:43;;;;;;;7.23;3.30;;;;;;;16.25;51.96;96129.31;10327352;28;20410;-32
2023/03/05 18:41:47;;;;;;;4.83;3.23;;;;;;;16.25;51.77;96114.16;10332288;28;20080;-31
2023/03/05 18:46:47;;;;;;;5.35;2.78;;;;;;;16.24;51.75;96109.94;10327588;28;20328;-32
2023/03/05 18:51:48;;;;;;;11.73;3.47;;;;;;;16.24;51.57;96107.44;10325169;28;20520;-32
2023/03/05 18:56:48;;;;;;;7.88;3.20;;;;;;;16.23;51.65;96103.22;10316573;28;20044;-31
2023/03/05 19:01:48;;;;;;;6.47;2.83;;;;;;;16.22;51.66;96104.06;10307987;28;20538;-31
2023/03/05 19:06:49;;;;;;;4.20;2.47;;;;;;;16.20;51.68;96102.38;10314269;28;20364;-32
2023/03/05 19:11:49;;;;;;;4.70;2.67;;;;;;;16.20;51.59;96100.69;10315295;28;20105;-31
2023/03/05 19:16:50;;;;;;;7.80;3.37;;;;;;;16.16;52.40;96099.03;10320839;28;20030;-31
2023/03/05 19:21:52;;;;;;;10.07;3.63;;;;;;;16.16;52.03;96096.50;10329883;28;20278;-32
2023/03/05 19:26:54;;;;;;;8.35;3.33;;;;;;;16.18;51.99;96093.97;10352706;28;20430;-32
2023/03/05 19:31:55;;;;;;;6.80;3.35;;;;;;;16.18;51.67;96089.75;10339666;28;20034;-32
2023/03/05 19:36:55;;;;;;;4.87;3.43;;;;;;;16.15;51.71;96087.25;10332571;28;20046;-32
2023/03/05 19:41:56;;;;;;;6.30;2.80;;;;;;;16.13;51.65;96081.31;10316592;28;20030;-32
2023/03/05 19:46:56;;;;;;;5.85;3.15;;;;;;;16.14;51.46;96072.06;10311398;28;20027;-32
2023/03/05 19:51:57;;;;;;;6.50;3.20;;;;;;;16.13;51.48;96076.28;10312864;28;20034;-31
2023/03/05 19:56:58;;;;;;;4.90;2.97;;;;;;;16.10;51.96;96073.75;10311453;28;20038;-31
2023/03/05 20:01:59;;;;;;;5.63;2.78;;;;;;;16.08;51.81;96067.88;10329112;28;20398;-33
2023/03/05 20:06:59;;;;;;;6.13;3.00;;;;;;;16.07;51.59;96070.41;10341247;28;20034;-32
2023/03/05 20:12:03;;;;;;;6.27;2.83;;;;;;;16.04;51.68;96071.22;10333198;28;20797;-32
2023/03/05 20:17:06;;;;;;;4.35;2.75;;;;;;;16.03;52.08;96059.47;10341437;28;20680;-32
2023/03/05 20:22:06;;;;;;;4.43;2.55;;;;;;;16.01;51.98;96056.09;10324232;28;20037;-32
2023/03/05 20:27:06;;;;;;;6.00;3.07;;;;;;;16.01;51.95;96057.78;10324971;28;20030;-31
2023/03/05 20:32:09;;;;;;;5.77;3.20;;;;;;;16.04;52.10;96046.00;10308246;28;20034;-32
2023/03/05 20:37:09;;;;;;;4.15;3.00;;;;;;;16.08;51.93;96037.59;10322868;28;20033;-32
2023/03/05 20:42:10;;;;;;;4.35;2.35;;;;;;;16.11;51.46;96031.69;10336629;28;20041;-32
2023/03/05 20:47:24;;;;;;;6.20;2.73;;;;;;;16.16;51.10;96030.84;10324394;28;20038;-32
2023/03/05 20:52:25;;;;;;;4.25;2.67;;;;;;;16.21;51.04;96026.59;10326609;28;20121;-31
2023/03/05 20:57:25;;;;;;;4.37;2.47;;;;;;;16.23;51.36;96027.47;10324066;28;20060;-33
2023/03/05 21:02:26;;;;;;;5.18;2.88;;;;;;;16.24;51.20;96023.22;10307089;28;20034;-31
2023/03/05 21:07:28;;;;;;;3.72;2.47;;;;;;;16.24;51.35;96024.09;10322831;28;20093;-31
2023/03/05 21:12:31;;;;;;;4.88;2.40;;;;;;;16.25;51.44;96015.66;10291396;28;20074;-32
2023/03/05 21:17:31;;;;;;;3.90;2.45;;;;;;;16.22;51.89;96005.59;10327233;28;20548;-31
2023/03/05 21:22:32;;;;;;;4.87;2.70;;;;;;;16.24;51.87;96003.88;10346387;28;20084;-32
2023/03/05 21:27:32;;;;;;;6.83;2.53;;;;;;;16.24;51.91;96006.41;10347738;28;20273;-31
2023/03/05 21:32:33;;;;;;;5.27;2.53;;;;;;;16.24;51.72;96003.88;10347645;28;20040;-32
2023/03/05 21:37:41;;;;;;;7.70;2.67;;;;;;;16.22;51.38;95995.47;10347573;28;20044;-32
2023/03/05 21:42:42;;;;;;;3.97;2.30;;;;;;;16.23;51.57;95993.78;10344819;28;20093;-31
2023/03/05 21:47:45;;;;;;;4.45;2.50;;;;;;;16.24;52.63;95982.81;10324285;28;20407;-31
2023/03/05 21:52:46;;;;;;;4.70;2.47;;;;;;;16.19;53.52;95977.78;10319258;28;20491;-32
2023/03/05 21:57:46;;;;;;;4.30;2.50;;;;;;;16.13;53.22;95965.16;10291415;28;20043;-32
2023/03/05 22:02:46;;;;;;;4.63;2.07;;;;;;;16.18;52.47;95963.50;10320650;28;20041;-31
2023/03/05 22:07:47;;;;;;;6.20;2.50;;;;;;;16.16;52.67;95955.09;10327345;28;20120;-34
2023/03/05 22:13:10;;;;;;;5.72;2.10;;;;;;;16.16;52.20;95962.66;10327641;28;20035;-32
2023/03/05 22:18:13;;;;;;;5.65;2.22;;;;;;;16.14;53.00;95953.41;10326819;28;20132;-31
2023/03/05 22:23:14;;;;;;;6.20;2.42;;;;;;;16.11;52.71;95950.91;10327291;28;20434;-31
2023/03/05 22:28:14;;;;;;;4.10;2.25;;;;;;;16.11;52.86;95941.63;10331503;28;20073;-32
2023/03/05 22:33:14;;;;;;;3.07;2.17;;;;;;;16.09;52.71;95937.41;10334620;28;20426;-32
2023/03/05 22:38:15;;;;;;;4.17;2.90;;;;;;;16.08;52.86;95939.13;10330297;28;20043;-31
2023/03/05 22:43:17;;;;;;;3.88;2.40;;;;;;;16.07;53.24;95934.91;10294548;28;20070;-31
2023/03/05 22:48:20;;;;;;;6.15;2.10;;;;;;;16.06;53.14;95928.19;10294688;28;20043;-31
2023/03/05 22:53:20;;;;;;;3.28;2.53;;;;;;;16.06;53.15;95928.19;10306996;28;20038;-32
2023/03/05 22:58:21;;;;;;;4.13;1.97;;;;;;;16.05;53.10;95915.56;10334321;28;20046;-32
2023/03/05 23:03:21;;;;;;;4.13;2.07;;;;;;;16.10;53.30;95918.94;10295170;28;20298;-31
2023/03/05 23:08:21;;;;;;;4.40;2.43;;;;;;;16.08;54.07;95906.31;10293313;28;20293;-31
2023/03/05 23:13:22;;;;;;;5.33;2.30;;;;;;;16.10;54.00;95899.56;10333416;28;20037;-32
2023/03/05 23:18:22;;;;;;;5.32;2.55;;;;;;;16.07;53.54;95898.72;10332760;28;20096;-34
2023/03/05 23:23:23;;;;;;;3.50;2.47;;;;;;;16.06;53.29;95897.03;10319458;28;20042;-32
2023/03/05 23:28:23;;;;;;;4.10;1.92;;;;;;;16.02;53.69;95886.13;10293168;28;20115;-31